Time;durP1;ratioP1;P1;durP2;ratioP2;P2;SDS_P1;SDS_P2;PMS_P1;PMS_P2;Temp;Humidity;BMP_temperature;BMP_pressure;BME280_temperature;BME280_humidity;BME280_pressure;Samples;Min_cycle;Max_cycle;Signal;HPM_P1;HPM_P2
2022/10/05 00:00:11;;;;;;;12.88;7.85;;;15.10;99.90;;;;;;5058563;28;20112;-80
2022/10/05 00:02:37;;;;;;;13.85;7.40;;;15.10;99.90;;;;;;5076666;28;20501;-82
2022/10/05 00:05:32;;;;;;;17.38;7.72;;;15.00;99.90;;;;;;5071057;28;20040;-80
2022/10/05 00:08:44;;;;;;;11.45;7.15;;;15.10;99.90;;;;;;5063477;28;20071;-85
2022/10/05 00:11:13;;;;;;;12.70;6.82;;;15.10;99.90;;;;;;5064334;28;20040;-85
2022/10/05 00:13:40;;;;;;;14.52;7.22;;;15.10;99.90;;;;;;5058965;28;20459;-81
2022/10/05 00:16:18;;;;;;;10.98;7.38;;;15.10;99.90;;;;;;5066077;28;20132;-83
2022/10/05 00:18:50;;;;;;;12.00;7.32;;;15.10;99.90;;;;;;5061716;28;20032;-84
2022/10/05 00:21:23;;;;;;;12.57;7.18;;;15.10;99.90;;;;;;5068698;28;20036;-84
2022/10/05 00:23:49;;;;;;;16.05;7.50;;;15.10;99.90;;;;;;5049821;28;20111;-85
2022/10/05 00:26:23;;;;;;;14.90;7.32;;;15.10;99.90;;;;;;5054297;28;20048;-81
2022/10/05 00:28:50;;;;;;;16.90;7.47;;;15.20;99.90;;;;;;5052378;28;20036;-82
2022/10/05 00:31:19;;;;;;;13.10;6.85;;;15.00;99.90;;;;;;5050367;28;20123;-83
2022/10/05 00:33:45;;;;;;;13.45;7.05;;;15.00;99.90;;;;;;5053397;28;20468;-86
2022/10/05 00:36:11;;;;;;;12.07;6.90;;;15.00;99.90;;;;;;5071159;28;20048;-82
2022/10/05 00:38:38;;;;;;;10.63;6.13;;;15.10;99.90;;;;;;5053273;28;20427;-84
2022/10/05 00:41:25;;;;;;;10.25;6.32;;;15.10;99.90;;;;;;5078884;28;20141;-83
2022/10/05 00:44:18;;;;;;;14.27;7.30;;;15.10;99.90;;;;;;5065163;28;20364;-84
2022/10/05 00:47:18;;;;;;;13.00;6.60;;;15.10;99.90;;;;;;5052957;28;20063;-84
2022/10/05 00:50:05;;;;;;;13.05;6.43;;;15.00;99.90;;;;;;5062164;28;20128;-84
2022/10/05 00:52:31;;;;;;;14.23;6.20;;;15.00;99.90;;;;;;5044273;28;20044;-81
2022/10/05 00:55:36;;;;;;;11.73;6.50;;;15.00;99.90;;;;;;5066074;28;20101;-83
2022/10/05 00:58:10;;;;;;;7.60;5.20;;;15.00;99.90;;;;;;5053874;28;20036;-82
2022/10/05 01:00:49;;;;;;;10.75;5.50;;;15.00;99.90;;;;;;5070658;28;20132;-82
2022/10/05 01:03:32;;;;;;;9.50;5.25;;;15.00;99.90;;;;;;5061567;28;20036;-84
2022/10/05 01:06:21;;;;;;;9.38;4.90;;;15.00;99.90;;;;;;5056485;28;20108;-83
2022/10/05 01:08:49;;;;;;;12.27;5.30;;;15.00;99.90;;;;;;5055201;28;20032;-84
2022/10/05 01:11:22;;;;;;;11.98;4.65;;;15.00;99.90;;;;;;5069924;28;20043;-82
2022/10/05 01:14:07;;;;;;;9.82;4.70;;;15.00;99.90;;;;;;5066296;28;20147;-81
2022/10/05 01:17:04;;;;;;;8.40;4.72;;;15.00;99.90;;;;;;5064810;28;20048;-82
2022/10/05 01:19:49;;;;;;;10.93;4.30;;;15.00;99.90;;;;;;5063346;28;20044;-84
2022/10/05 01:22:52;;;;;;;7.30;4.55;;;15.10;99.90;;;;;;5056657;28;20055;-87
2022/10/05 01:25:28;;;;;;;7.03;4.35;;;15.10;99.90;;;;;;5052240;28;20464;-84
2022/10/05 01:28:08;;;;;;;9.18;4.82;;;15.00;99.90;;;;;;5047140;28;20044;-84
2022/10/05 01:30:56;;;;;;;5.85;4.70;;;15.10;99.90;;;;;;5066711;28;20047;-81
2022/10/05 01:33:36;;;;;;;8.23;4.40;;;15.10;99.90;;;;;;5076548;28;20036;-84
2022/10/05 01:36:36;;;;;;;7.03;4.95;;;15.10;99.90;;;;;;5060685;28;20044;-82
2022/10/05 01:39:58;;;;;;;7.25;4.45;;;15.10;99.90;;;;;;5070166;28;20086;-85
2022/10/05 01:43:05;;;;;;;8.77;4.70;;;15.10;99.90;;;;;;5081672;28;20043;-80
2022/10/05 01:46:05;;;;;;;11.35;5.00;;;15.10;99.90;;;;;;5010799;28;20078;-81
2022/10/05 01:48:51;;;;;;;11.35;4.95;;;15.10;99.90;;;;;;4975964;28;20042;-82
2022/10/05 01:51:28;;;;;;;8.40;5.05;;;15.10;99.90;;;;;;4919924;29;20126;-81
2022/10/05 01:54:22;;;;;;;10.77;5.30;;;15.10;99.90;;;;;;4909408;29;20059;-81
2022/10/05 01:57:20;;;;;;;10.43;5.57;;;15.10;99.90;;;;;;4937725;29;20048;-82
2022/10/05 02:00:00;;;;;;;13.95;5.90;;;15.00;99.90;;;;;;4901918;29;20122;-83
2022/10/05 02:02:30;;;;;;;10.77;5.75;;;15.10;99.90;;;;;;4900261;29;20135;-83
2022/10/05 02:05:03;;;;;;;8.15;5.63;;;15.10;99.90;;;;;;4914582;29;20044;-84
2022/10/05 02:07:56;;;;;;;10.18;6.15;;;15.00;99.90;;;;;;4937985;29;20044;-79
2022/10/05 02:10:27;;;;;;;12.45;5.88;;;15.00;99.90;;;;;;4924247;29;20044;-84
2022/10/05 02:13:16;;;;;;;9.98;5.82;;;15.00;99.90;;;;;;4914484;29;20036;-84
2022/10/05 02:15:47;;;;;;;8.90;5.75;;;15.00;99.90;;;;;;4910252;29;20067;-82
2022/10/05 02:18:21;;;;;;;8.25;5.55;;;15.00;99.90;;;;;;4898124;29;20114;-86
2022/10/05 02:20:50;;;;;;;10.93;5.75;;;15.00;99.90;;;;;;4912343;29;20110;-83
2022/10/05 02:23:24;;;;;;;9.18;6.30;;;14.90;99.90;;;;;;4900598;29;20209;-81
2022/10/05 02:25:53;;;;;;;10.57;5.68;;;14.90;99.90;;;;;;4930904;28;20120;-82
2022/10/05 02:28:34;;;;;;;11.80;6.03;;;14.90;99.90;;;;;;5007340;28;20052;-81
2022/10/05 02:31:06;;;;;;;11.95;5.88;;;14.90;99.90;;;;;;5044634;28;20045;-83
2022/10/05 02:33:34;;;;;;;15.93;6.30;;;14.80;99.90;;;;;;5052273;28;20384;-86
2022/10/05 02:36:19;;;;;;;10.95;6.07;;;14.80;99.90;;;;;;5049139;28;20056;-84
2022/10/05 02:39:09;;;;;;;7.28;5.53;;;14.90;99.90;;;;;;5066632;28;20041;-83
2022/10/05 02:41:47;;;;;;;11.10;6.20;;;14.90;99.90;;;;;;5048064;28;20118;-82
2022/10/05 02:44:25;;;;;;;8.38;5.30;;;14.90;99.90;;;;;;5066741;28;20317;-83
2022/10/05 02:47:06;;;;;;;12.63;5.72;;;14.90;99.90;;;;;;5046277;28;20387;-81
2022/10/05 02:49:39;;;;;;;15.82;5.75;;;14.80;99.90;;;;;;5060239;28;20047;-83
2022/10/05 02:52:17;;;;;;;11.00;5.32;;;15.00;99.90;;;;;;5061406;28;20044;-87
2022/10/05 02:54:49;;;;;;;8.52;5.38;;;14.90;99.90;;;;;;5065117;28;20036;-83
2022/10/05 02:57:33;;;;;;;10.13;5.38;;;14.90;99.90;;;;;;5049402;28;20044;-82
2022/10/05 03:00:19;;;;;;;8.30;5.50;;;15.00;99.90;;;;;;5053687;28;20048;-84
2022/10/05 03:03:10;;;;;;;8.20;4.82;;;14.90;99.90;;;;;;5070379;28;20045;-83
2022/10/05 03:06:28;;;;;;;14.80;5.40;;;14.90;99.90;;;;;;5050083;28;20071;-83
2022/10/05 03:09:26;;;;;;;5.78;4.38;;;15.10;99.90;;;;;;5010639;28;20060;-84
2022/10/05 03:12:10;;;;;;;12.55;4.90;;;15.00;99.90;;;;;;4997599;28;20536;-89
2022/10/05 03:14:58;;;;;;;7.40;4.63;;;15.00;99.90;;;;;;5009646;28;20072;-84
2022/10/05 03:17:33;;;;;;;7.75;4.97;;;15.00;99.90;;;;;;5014613;28;20053;-81
2022/10/05 03:20:16;;;;;;;;;;;15.00;99.90;;;;;;5018522;28;20037;-81
2022/10/05 03:22:59;;;;;;;9.18;4.95;;;15.00;99.90;;;;;;5007016;28;19923;-81
2022/10/05 03:25:35;;;;;;;10.98;4.78;;;15.10;99.90;;;;;;5021752;28;20045;-80
2022/10/05 03:28:26;;;;;;;7.85;4.32;;;15.10;99.90;;;;;;5014982;28;20029;-85
2022/10/05 03:31:16;;;;;;;8.82;4.88;;;15.10;99.90;;;;;;5024456;28;20409;-83
2022/10/05 03:33:59;;;;;;;7.38;4.10;;;15.00;99.90;;;;;;4995213;28;20081;-81
2022/10/05 03:37:03;;;;;;;6.40;4.05;;;15.10;99.90;;;;;;5028685;28;20084;-82
2022/10/05 03:39:35;;;;;;;9.65;4.20;;;15.10;99.90;;;;;;5011501;28;20560;-80
2022/10/05 03:42:19;;;;;;;7.03;4.28;;;15.00;99.90;;;;;;4994122;28;20548;-82
2022/10/05 03:44:54;;;;;;;6.57;4.10;;;15.10;99.90;;;;;;5050630;28;20140;-85
2022/10/05 03:47:19;;;;;;;8.23;3.97;;;15.00;99.90;;;;;;5064861;28;20048;-85
2022/10/05 03:49:56;;;;;;;11.70;3.72;;;15.10;99.90;;;;;;5072000;28;20117;-86
2022/10/05 03:52:29;;;;;;;8.27;3.85;;;15.10;99.90;;;;;;5060117;28;20100;-84
2022/10/05 03:55:28;;;;;;;7.40;3.90;;;15.10;99.90;;;;;;5069321;28;20120;-84
2022/10/05 03:57:58;;;;;;;12.55;3.30;;;15.10;99.90;;;;;;5048699;28;20051;-82
2022/10/05 04:00:27;;;;;;;9.23;3.80;;;15.00;99.90;;;;;;5069079;28;20368;-82
2022/10/05 04:03:16;;;;;;;8.77;3.78;;;15.00;99.90;;;;;;5044912;28;20044;-86
2022/10/05 04:05:57;;;;;;;6.43;4.18;;;15.00;99.90;;;;;;5066042;28;20052;-85
2022/10/05 04:08:31;;;;;;;5.40;3.75;;;15.00;99.90;;;;;;5040555;28;20043;-81
2022/10/05 04:11:04;;;;;;;10.32;4.25;;;15.00;99.90;;;;;;5067441;28;20083;-82
2022/10/05 04:13:41;;;;;;;7.07;4.43;;;15.00;99.90;;;;;;5069054;28;20447;-83
2022/10/05 04:16:15;;;;;;;7.55;4.60;;;15.00;99.90;;;;;;5067874;28;20040;-82
2022/10/05 04:18:49;;;;;;;6.85;4.28;;;15.00;99.90;;;;;;5069653;28;20211;-83
2022/10/05 04:21:27;;;;;;;7.40;4.47;;;14.90;99.90;;;;;;5064013;28;20238;-81
2022/10/05 04:24:00;;;;;;;9.52;4.93;;;14.90;99.90;;;;;;5048088;28;20036;-83
2022/10/05 04:26:56;;;;;;;12.40;5.30;;;14.90;99.90;;;;;;5074901;28;20049;-84
2022/10/05 04:29:40;;;;;;;;;;;14.90;99.90;;;;;;5059984;28;20043;-86
2022/10/05 04:32:12;;;;;;;7.45;4.82;;;14.90;99.90;;;;;;5070275;28;19983;-79
2022/10/05 04:34:53;;;;;;;6.60;4.70;;;14.90;99.90;;;;;;5062684;28;20037;-80
2022/10/05 04:37:31;;;;;;;8.15;4.75;;;14.90;99.90;;;;;;5050403;28;20036;-84
2022/10/05 04:40:19;;;;;;;9.27;4.53;;;14.90;99.90;;;;;;5087444;28;20095;-85
2022/10/05 04:42:54;;;;;;;6.43;4.55;;;14.80;99.90;;;;;;5088776;28;20824;-82
2022/10/05 04:46:05;;;;;;;11.05;4.95;;;14.90;99.90;;;;;;5066643;28;20131;-82
2022/10/05 04:48:43;;;;;;;7.03;4.80;;;14.80;99.90;;;;;;5053796;28;20052;-85
2022/10/05 04:51:37;;;;;;;11.38;5.40;;;14.90;99.90;;;;;;5088181;28;20032;-83
2022/10/05 04:54:19;;;;;;;11.40;5.35;;;14.80;99.90;;;;;;5070010;28;20111;-85
2022/10/05 04:56:53;;;;;;;9.48;4.82;;;14.90;99.90;;;;;;5057464;28;20044;-83
2022/10/05 04:59:28;;;;;;;;;;;14.80;99.90;;;;;;5074010;28;20071;-82
2022/10/05 05:02:00;;;;;;;10.10;5.50;;;14.80;99.90;;;;;;5068437;28;20010;-82
2022/10/05 05:04:35;;;;;;;9.50;5.47;;;14.80;99.90;;;;;;5067198;28;20102;-86
2022/10/05 05:07:28;;;;;;;14.00;6.20;;;14.80;99.90;;;;;;5049897;28;20028;-84
2022/10/05 05:10:06;;;;;;;9.38;6.30;;;14.80;99.90;;;;;;5055139;28;20099;-81
2022/10/05 05:12:50;;;;;;;13.07;6.78;;;14.70;99.90;;;;;;5049950;28;20131;-78
2022/10/05 05:15:42;;;;;;;12.83;6.93;;;14.70;99.90;;;;;;5073212;28;20537;-83
2022/10/05 05:18:14;;;;;;;12.65;6.78;;;14.70;99.90;;;;;;5071655;28;20068;-81
2022/10/05 05:20:52;;;;;;;11.77;7.13;;;14.80;99.90;;;;;;5074715;28;20036;-84
2022/10/05 05:23:34;;;;;;;10.77;6.85;;;14.80;99.90;;;;;;5092457;28;20055;-83
2022/10/05 05:26:20;;;;;;;10.90;7.40;;;14.90;99.90;;;;;;5048163;28;20115;-85
2022/10/05 05:29:37;;;;;;;19.27;8.13;;;14.80;99.90;;;;;;5062657;28;20157;-84
2022/10/05 05:32:18;;;;;;;14.10;8.43;;;14.80;99.90;;;;;;5054106;28;20032;-82
2022/10/05 05:34:46;;;;;;;12.15;7.60;;;14.70;99.90;;;;;;5073121;28;20050;-83
2022/10/05 05:37:38;;;;;;;12.85;8.20;;;14.70;99.90;;;;;;5073599;28;20047;-83
2022/10/05 05:40:35;;;;;;;12.73;7.50;;;14.70;99.90;;;;;;5043258;28;20251;-85
2022/10/05 05:43:33;;;;;;;14.35;7.40;;;14.70;99.90;;;;;;4994596;28;20556;-85
2022/10/05 05:46:05;;;;;;;13.70;7.70;;;14.70;99.90;;;;;;4972696;28;20050;-82
2022/10/05 05:48:42;;;;;;;13.52;7.38;;;14.70;99.90;;;;;;4977419;28;20061;-85
2022/10/05 05:51:38;;;;;;;11.18;6.93;;;14.70;99.90;;;;;;4994937;28;20168;-85
2022/10/05 05:54:40;;;;;;;13.05;7.28;;;14.70;99.90;;;;;;4989554;28;20074;-85
2022/10/05 05:57:23;;;;;;;12.05;6.70;;;14.70;99.90;;;;;;4992625;28;20042;-86
2022/10/05 06:00:15;;;;;;;12.27;6.82;;;14.70;99.90;;;;;;4993549;28;20045;-83
2022/10/05 06:02:51;;;;;;;13.88;6.82;;;14.70;99.90;;;;;;4977116;28;20029;-86
2022/10/05 06:05:39;;;;;;;11.73;6.50;;;14.70;99.90;;;;;;4993873;28;20030;-83
2022/10/05 06:08:42;;;;;;;14.27;7.13;;;14.70;99.90;;;;;;4976007;28;20505;-84
2022/10/05 06:11:49;;;;;;;12.18;7.15;;;14.80;99.90;;;;;;4942651;28;20055;-83
2022/10/05 06:14:37;;;;;;;13.43;6.75;;;14.80;99.90;;;;;;4899230;29;20077;-83
2022/10/05 06:17:20;;;;;;;8.43;6.38;;;14.80;99.90;;;;;;4911099;29;20162;-86
2022/10/05 06:19:47;;;;;;;9.88;6.57;;;14.70;99.90;;;;;;4944686;28;20077;-85
2022/10/05 06:22:29;;;;;;;12.48;7.35;;;14.80;99.90;;;;;;4983682;28;20054;-82
2022/10/05 06:25:25;;;;;;;14.27;7.20;;;14.80;99.90;;;;;;4975918;28;20159;-80
2022/10/05 06:28:10;;;;;;;16.13;6.65;;;14.80;99.90;;;;;;4987949;28;20050;-83
2022/10/05 06:30:53;;;;;;;10.80;6.32;;;14.80;99.90;;;;;;4970596;28;20133;-85
2022/10/05 06:33:25;;;;;;;15.57;6.55;;;14.80;99.90;;;;;;4962499;28;20121;-83
2022/10/05 06:36:29;;;;;;;9.10;6.07;;;14.90;99.90;;;;;;4965250;28;20520;-83
2022/10/05 06:39:20;;;;;;;12.10;6.57;;;14.90;99.90;;;;;;4987822;28;20072;-84
2022/10/05 06:42:09;;;;;;;11.35;6.30;;;14.90;99.90;;;;;;4960799;28;20530;-81
2022/10/05 06:45:05;;;;;;;9.80;6.00;;;14.80;99.90;;;;;;4971682;28;20137;-80
2022/10/05 06:47:50;;;;;;;11.30;6.40;;;14.80;99.90;;;;;;4988623;28;20056;-83
2022/10/05 06:50:39;;;;;;;13.05;6.10;;;14.90;99.90;;;;;;5000310;28;20041;-81
2022/10/05 06:57:03;;;;;;;9.75;6.43;;;14.80;99.90;;;;;;5006991;28;20137;-84
2022/10/05 06:59:57;;;;;;;13.30;6.10;;;14.90;99.90;;;;;;5006416;28;20096;-85
2022/10/05 07:02:34;;;;;;;11.13;6.03;;;15.00;99.90;;;;;;4993015;28;20045;-84
2022/10/05 07:05:27;;;;;;;11.57;6.03;;;15.00;99.90;;;;;;4971051;28;20058;-87
2022/10/05 07:07:59;;;;;;;10.10;5.63;;;15.00;99.90;;;;;;4987575;28;20049;-84
2022/10/05 07:10:30;;;;;;;7.85;5.50;;;15.00;99.90;;;;;;4990341;28;20049;-82
2022/10/05 07:13:15;;;;;;;10.35;5.53;;;15.00;99.90;;;;;;4987989;28;20465;-81
2022/10/05 07:15:45;;;;;;;12.77;5.87;;;15.00;99.90;;;;;;4988365;28;20051;-84
2022/10/05 07:18:30;;;;;;;9.00;5.78;;;15.10;99.90;;;;;;4987899;28;20356;-81
2022/10/05 07:21:18;;;;;;;11.07;5.30;;;15.10;99.90;;;;;;5084993;28;20035;-80
2022/10/05 07:23:58;;;;;;;8.25;4.97;;;15.10;99.90;;;;;;5048113;28;20036;-87
2022/10/05 07:26:51;;;;;;;9.35;5.30;;;15.10;99.90;;;;;;5058219;28;20053;-84
2022/10/05 07:29:24;;;;;;;11.35;5.05;;;15.20;99.90;;;;;;5066858;28;20118;-82
2022/10/05 07:31:50;;;;;;;6.93;4.70;;;15.20;99.90;;;;;;5082800;28;20072;-81
2022/10/05 07:35:00;;;;;;;11.27;4.97;;;15.20;99.90;;;;;;5072700;28;20403;-83
2022/10/05 07:37:55;;;;;;;8.25;4.57;;;15.20;99.90;;;;;;5009794;28;20153;-83
2022/10/05 07:40:27;;;;;;;;;;;15.20;99.90;;;;;;4991678;28;20050;-84
2022/10/05 07:43:25;;;;;;;6.07;4.10;;;15.30;99.90;;;;;;4988291;28;19924;-85
2022/10/05 07:46:15;;;;;;;8.45;4.32;;;15.40;99.90;;;;;;5004767;28;20065;-85
2022/10/05 07:49:09;;;;;;;5.97;4.05;;;15.50;99.90;;;;;;4975148;28;20050;-82
2022/10/05 07:51:40;;;;;;;6.88;4.32;;;15.50;99.90;;;;;;4955399;28;20057;-82
2022/10/05 07:54:29;;;;;;;5.10;3.50;;;15.60;99.90;;;;;;4940737;28;20126;-85
2022/10/05 07:57:08;;;;;;;8.55;4.35;;;15.50;99.90;;;;;;4952114;28;20451;-85
2022/10/05 07:59:42;;;;;;;7.13;3.55;;;15.50;99.90;;;;;;4965059;28;20063;-86
2022/10/05 08:02:17;;;;;;;7.55;3.70;;;15.50;99.90;;;;;;4936736;28;20050;-86
2022/10/05 08:04:58;;;;;;;9.02;3.42;;;15.50;99.90;;;;;;4959874;28;20138;-84
2022/10/05 08:07:24;;;;;;;7.93;3.50;;;15.60;99.90;;;;;;4961614;28;20122;-83
2022/10/05 08:09:57;;;;;;;6.43;2.85;;;15.60;99.90;;;;;;5021587;28;20045;-82
2022/10/05 08:12:38;;;;;;;5.72;3.00;;;15.60;99.90;;;;;;5041982;28;20045;-82
2022/10/05 08:15:04;;;;;;;5.43;2.70;;;15.60;99.90;;;;;;5025618;28;20037;-83
2022/10/05 08:17:42;;;;;;;5.65;2.75;;;15.60;99.90;;;;;;5010741;28;20383;-83
2022/10/05 08:20:25;;;;;;;6.80;2.83;;;15.60;99.90;;;;;;5020741;28;20107;-87
2022/10/05 08:23:04;;;;;;;7.68;2.28;;;15.70;99.90;;;;;;5051634;28;20043;-84
2022/10/05 08:25:45;;;;;;;4.35;2.13;;;15.70;99.90;;;;;;5071591;28;20063;-82
2022/10/05 08:28:25;;;;;;;6.15;2.20;;;15.80;99.90;;;;;;5091231;28;20055;-82
2022/10/05 08:31:01;;;;;;;4.65;1.63;;;15.90;99.90;;;;;;5069491;28;20056;-83
2022/10/05 08:33:34;;;;;;;3.45;1.70;;;16.00;99.90;;;;;;5077654;28;20048;-83
2022/10/05 08:36:13;;;;;;;1.55;1.45;;;16.10;99.90;;;;;;5071543;28;20044;-83
2022/10/05 08:38:40;;;;;;;4.15;2.00;;;16.10;99.90;;;;;;5051130;28;20071;-83
2022/10/05 08:45:09;;;;;;;4.53;1.77;;;16.20;99.90;;;;;;5072572;28;20036;-84
2022/10/05 08:47:56;;;;;;;4.50;1.85;;;16.30;99.90;;;;;;5054963;28;20059;-84
2022/10/05 08:50:30;;;;;;;4.95;1.85;;;16.30;99.90;;;;;;5062784;28;20051;-81
2022/10/05 08:53:37;;;;;;;5.85;1.90;;;16.40;99.90;;;;;;5073732;28;20391;-84
2022/10/05 08:57:00;;;;;;;9.57;2.40;;;16.40;99.90;;;;;;4980347;28;20058;-82
2022/10/05 09:00:10;;;;;;;3.65;2.00;;;16.50;99.90;;;;;;4920292;29;20151;-83
2022/10/05 09:02:36;;;;;;;7.80;2.28;;;16.50;99.90;;;;;;4933664;29;20157;-83
2022/10/05 09:05:13;;;;;;;7.30;2.40;;;16.50;99.90;;;;;;4919288;29;20048;-84
2022/10/05 09:08:03;;;;;;;4.75;2.35;;;16.60;99.90;;;;;;4924303;29;20131;-80
2022/10/05 09:10:57;;;;;;;3.17;2.30;;;16.60;99.90;;;;;;4919654;29;20060;-81
2022/10/05 09:13:56;;;;;;;5.50;2.38;;;16.60;99.90;;;;;;4923859;29;20110;-84
2022/10/05 09:16:38;;;;;;;5.65;4.25;;;16.70;99.90;;;;;;4928521;29;20147;-84
2022/10/05 09:19:22;;;;;;;7.13;3.15;;;16.70;99.90;;;;;;4935564;29;20087;-82
2022/10/05 09:21:59;;;;;;;8.55;3.80;;;16.80;99.90;;;;;;4936811;29;20602;-82
2022/10/05 09:24:54;;;;;;;6.13;3.40;;;16.70;99.90;;;;;;4921093;29;20527;-83
2022/10/05 09:27:34;;;;;;;5.68;3.38;;;16.90;99.90;;;;;;4944958;29;20419;-83
2022/10/05 09:30:14;;;;;;;8.52;3.20;;;16.80;99.90;;;;;;4987533;28;20071;-84
2022/10/05 09:32:43;;;;;;;15.48;3.78;;;16.80;99.90;;;;;;5059642;28;20105;-82
2022/10/05 09:35:25;;;;;;;3.75;2.60;;;16.90;99.90;;;;;;5044868;28;20182;-82
2022/10/05 09:37:53;;;;;;;5.35;3.05;;;16.80;99.90;;;;;;5060109;28;20056;-85
2022/10/05 09:40:25;;;;;;;7.30;3.47;;;16.90;99.90;;;;;;5060649;28;20048;-81
2022/10/05 09:42:58;;;;;;;6.55;3.00;;;17.00;99.90;;;;;;5056804;28;20487;-85
2022/10/05 09:45:43;;;;;;;9.50;3.30;;;17.00;99.90;;;;;;5042344;28;20041;-81
2022/10/05 09:48:36;;;;;;;6.43;3.47;;;17.10;99.90;;;;;;5073558;28;20051;-81
2022/10/05 09:51:23;;;;;;;9.02;3.58;;;17.20;99.90;;;;;;5075939;28;20513;-85
2022/10/05 09:54:20;;;;;;;10.60;4.53;;;17.20;99.90;;;;;;5076558;28;20085;-82
2022/10/05 09:57:11;;;;;;;6.22;3.63;;;17.20;99.90;;;;;;5038727;28;20048;-83
2022/10/05 09:59:46;;;;;;;3.38;2.65;;;17.20;99.90;;;;;;5022782;28;20365;-82
2022/10/05 10:02:19;;;;;;;6.38;2.72;;;17.30;99.90;;;;;;5036560;28;20484;-82
2022/10/05 10:05:24;;;;;;;11.68;3.25;;;17.30;99.90;;;;;;5048982;28;20365;-80
2022/10/05 10:07:59;;;;;;;5.43;2.70;;;17.40;99.90;;;;;;4972485;28;20058;-80
2022/10/05 10:11:00;;;;;;;6.43;4.25;;;17.40;99.90;;;;;;4950610;28;20069;-79
2022/10/05 10:13:52;;;;;;;12.25;4.50;;;17.30;99.90;;;;;;4979448;28;20054;-79
2022/10/05 10:16:29;;;;;;;14.38;4.40;;;17.40;99.90;;;;;;4960763;28;20488;-81
2022/10/05 10:18:58;;;;;;;5.65;3.15;;;17.50;99.90;;;;;;4977169;28;20057;-83
2022/10/05 10:21:54;;;;;;;5.45;2.40;;;17.50;99.90;;;;;;4974272;28;20050;-82
2022/10/05 10:24:57;;;;;;;9.30;2.58;;;17.40;99.90;;;;;;4982190;28;20065;-84
2022/10/05 10:28:00;;;;;;;4.95;2.75;;;17.30;99.90;;;;;;4971083;28;20070;-83
2022/10/05 10:31:19;;;;;;;9.13;2.78;;;17.30;99.90;;;;;;4953139;28;20050;-83
2022/10/05 10:33:59;;;;;;;5.10;2.47;;;17.30;99.90;;;;;;4894854;29;20060;-81
2022/10/05 10:36:46;;;;;;;7.20;3.00;;;17.10;99.90;;;;;;4893003;29;20467;-82
2022/10/05 10:39:33;;;;;;;3.40;2.15;;;17.10;99.90;;;;;;4894166;29;20060;-84
2022/10/05 10:42:06;;;;;;;5.07;2.63;;;17.10;99.90;;;;;;4896064;29;20126;-81
2022/10/05 10:44:58;;;;;;;4.55;2.70;;;17.00;99.90;;;;;;4988772;28;20106;-83
2022/10/05 10:47:37;;;;;;;11.35;2.97;;;16.90;99.90;;;;;;4987685;28;20045;-84
2022/10/05 10:50:39;;;;;;;4.38;2.40;;;16.90;99.90;;;;;;4971551;28;20053;-84
2022/10/05 10:53:41;;;;;;;4.68;3.40;;;16.90;99.90;;;;;;4969209;28;20541;-85
2022/10/05 10:56:37;;;;;;;8.32;5.35;;;16.90;99.90;;;;;;4981137;28;20502;-82
2022/10/05 10:59:43;;;;;;;11.75;4.88;;;16.90;99.90;;;;;;4984515;28;20113;-85
2022/10/05 11:02:20;;;;;;;6.85;3.45;;;16.90;99.90;;;;;;4967823;28;20053;-83
2022/10/05 11:05:24;;;;;;;7.93;3.00;;;16.90;99.90;;;;;;5022505;28;20149;-83
2022/10/05 11:07:56;;;;;;;7.38;2.63;;;16.90;99.90;;;;;;5046617;28;21042;-83
2022/10/05 11:10:47;;;;;;;5.25;2.75;;;16.90;99.90;;;;;;5050008;28;20230;-83
2022/10/05 11:14:01;;;;;;;5.82;2.72;;;16.90;99.90;;;;;;5046912;28;20033;-85
2022/10/05 11:16:45;;;;;;;4.30;2.92;;;16.90;99.90;;;;;;5045449;28;20134;-85
2022/10/05 11:19:44;;;;;;;6.72;3.08;;;16.90;99.90;;;;;;5066141;28;20118;-83
2022/10/05 11:22:50;;;;;;;6.68;2.92;;;16.90;99.90;;;;;;5048606;28;20119;-83
2022/10/05 11:25:19;;;;;;;4.07;2.85;;;16.90;99.90;;;;;;5040796;28;20127;-83
2022/10/05 11:28:16;;;;;;;4.72;2.50;;;16.80;99.90;;;;;;5047551;28;20080;-83
2022/10/05 11:30:55;;;;;;;5.07;3.00;;;16.80;99.90;;;;;;5049932;28;20063;-85
2022/10/05 11:33:48;;;;;;;4.18;2.70;;;16.80;99.90;;;;;;5054042;28;20197;-83
2022/10/05 11:36:24;;;;;;;4.70;2.70;;;16.80;99.90;;;;;;5066090;28;20045;-87
2022/10/05 11:39:21;;;;;;;6.25;2.70;;;16.70;99.90;;;;;;5050257;28;20044;-86
2022/10/05 11:42:07;;;;;;;7.00;2.80;;;16.70;99.90;;;;;;5050107;28;20057;-85
2022/10/05 11:45:11;;;;;;;9.85;2.58;;;16.70;99.90;;;;;;5068733;28;20082;-86
2022/10/05 11:47:45;;;;;;;4.90;2.45;;;16.70;99.90;;;;;;5068568;28;20059;-81
2022/10/05 11:50:20;;;;;;;8.38;2.95;;;16.70;99.90;;;;;;5068138;28;20111;-84
2022/10/05 11:52:54;;;;;;;5.60;2.65;;;16.70;99.90;;;;;;5052010;28;20091;-85
2022/10/05 11:55:36;;;;;;;5.05;2.88;;;16.70;99.90;;;;;;5052681;28;20051;-85
2022/10/05 11:58:12;;;;;;;4.88;2.80;;;16.70;99.90;;;;;;5067354;28;20059;-83
2022/10/05 12:01:04;;;;;;;6.35;2.80;;;16.70;99.90;;;;;;5068994;28;20353;-88
2022/10/05 12:03:41;;;;;;;5.55;3.00;;;16.70;99.90;;;;;;5051620;28;20061;-84
2022/10/05 12:06:43;;;;;;;4.93;3.03;;;16.70;99.90;;;;;;5070169;28;20044;-84
2022/10/05 12:10:12;;;;;;;4.85;2.90;;;16.70;99.90;;;;;;5068989;28;20055;-84
2022/10/05 12:13:03;;;;;;;6.45;2.85;;;16.70;99.90;;;;;;5064593;28;20044;-84
2022/10/05 12:16:06;;;;;;;3.70;2.60;;;16.80;99.90;;;;;;5050300;28;20093;-81
2022/10/05 12:18:32;;;;;;;7.65;2.30;;;16.70;99.90;;;;;;5044636;28;20119;-83
2022/10/05 12:21:16;;;;;;;6.97;2.60;;;16.70;99.90;;;;;;5077633;28;20040;-84
2022/10/05 12:23:52;;;;;;;5.50;2.30;;;16.80;99.90;;;;;;5062746;28;20048;-87
2022/10/05 12:26:39;;;;;;;4.38;2.40;;;16.90;99.90;;;;;;5059261;28;20067;-85
2022/10/05 12:29:37;;;;;;;4.18;2.38;;;17.00;99.90;;;;;;5080572;28;20488;-81
2022/10/05 12:32:32;;;;;;;5.43;2.40;;;17.00;99.90;;;;;;5052711;28;20132;-82
2022/10/05 12:35:12;;;;;;;6.32;2.72;;;17.00;99.90;;;;;;5050132;28;20199;-87
2022/10/05 12:37:53;;;;;;;6.43;2.58;;;17.10;99.90;;;;;;5073989;28;20059;-86
2022/10/05 12:40:25;;;;;;;6.53;2.70;;;17.10;99.90;;;;;;5059786;28;20056;-84
2022/10/05 12:42:59;;;;;;;7.05;2.58;;;17.00;99.90;;;;;;5068108;28;20488;-85
2022/10/05 12:45:42;;;;;;;5.88;2.47;;;17.10;99.90;;;;;;5078485;28;20103;-83
2022/10/05 12:48:26;;;;;;;4.85;2.70;;;17.10;99.90;;;;;;5055141;28;20055;-82
2022/10/05 12:51:05;;;;;;;4.25;2.60;;;17.00;99.90;;;;;;5052108;28;20053;-82
2022/10/05 12:53:59;;;;;;;5.35;2.92;;;17.10;99.90;;;;;;5068310;28;20555;-84
2022/10/05 12:56:36;;;;;;;4.05;2.80;;;17.00;99.90;;;;;;5045339;28;20735;-87
2022/10/05 12:59:33;;;;;;;8.50;2.95;;;17.00;99.90;;;;;;5044329;28;20078;-84
2022/10/05 13:02:13;;;;;;;11.02;3.20;;;16.90;99.90;;;;;;5042172;28;20068;-82
2022/10/05 13:05:05;;;;;;;4.57;2.67;;;16.90;99.90;;;;;;5045651;28;20079;-83
2022/10/05 13:08:06;;;;;;;5.78;3.17;;;16.90;99.90;;;;;;5062143;28;20147;-86
2022/10/05 13:10:38;;;;;;;11.15;3.97;;;16.90;99.90;;;;;;5059524;28;20701;-86
2022/10/05 13:13:06;;;;;;;7.28;2.95;;;16.90;99.90;;;;;;5062538;28;20101;-85
2022/10/05 13:15:56;;;;;;;13.48;3.47;;;17.00;99.90;;;;;;5047646;28;20044;-83
2022/10/05 13:18:37;;;;;;;5.53;2.63;;;17.00;99.90;;;;;;5049603;28;20036;-81
2022/10/05 13:21:25;;;;;;;6.35;2.45;;;17.10;99.90;;;;;;5064606;28;20495;-87
2022/10/05 13:24:02;;;;;;;9.90;2.83;;;17.20;99.90;;;;;;5070929;28;20483;-83
2022/10/05 13:31:10;;;;;;;7.53;2.60;;;17.30;99.90;;;;;;5099928;28;20455;-81
2022/10/05 13:34:03;;;;;;;5.50;3.00;;;17.30;99.90;;;;;;5057109;28;20048;-84
2022/10/05 13:36:45;;;;;;;5.70;2.90;;;17.20;99.90;;;;;;5076828;28;20051;-84
2022/10/05 13:39:43;;;;;;;7.88;2.92;;;17.20;99.90;;;;;;5087494;28;20387;-83
2022/10/05 13:42:20;;;;;;;4.88;3.03;;;17.10;99.90;;;;;;5084281;28;20054;-82
2022/10/05 13:44:57;;;;;;;7.75;3.10;;;17.30;99.90;;;;;;5078686;28;20036;-84
2022/10/05 13:47:39;;;;;;;7.85;3.03;;;17.40;99.90;;;;;;5061071;28;20078;-83
2022/10/05 13:50:13;;;;;;;5.32;2.90;;;17.50;99.90;;;;;;5057549;28;20055;-86
2022/10/05 13:53:00;;;;;;;6.10;3.33;;;17.70;99.90;;;;;;5060579;28;20039;-83
2022/10/05 13:55:38;;;;;;;11.07;2.70;;;17.70;99.90;;;;;;5076780;28;20035;-83
2022/10/05 13:58:25;;;;;;;4.75;2.60;;;17.80;99.90;;;;;;5059132;28;20036;-84
2022/10/05 14:01:33;;;;;;;9.27;3.10;;;17.80;99.90;;;;;;5059185;28;20131;-84
2022/10/05 14:04:15;;;;;;;9.82;2.75;;;17.80;99.90;;;;;;4997990;28;20145;-86
2022/10/05 14:06:41;;;;;;;7.93;2.65;;;17.90;99.90;;;;;;4994246;28;20060;-86
2022/10/05 14:09:25;;;;;;;10.10;3.22;;;17.90;99.90;;;;;;4983678;28;20102;-84
2022/10/05 14:12:18;;;;;;;5.00;2.80;;;18.00;99.90;;;;;;4996406;28;20053;-87
2022/10/05 14:14:51;;;;;;;5.38;2.85;;;18.20;99.90;;;;;;4985479;28;20048;-83
2022/10/05 14:17:41;;;;;;;7.28;2.80;;;18.20;99.90;;;;;;5001780;28;20085;-83
2022/10/05 14:20:20;;;;;;;7.32;2.80;;;18.00;99.90;;;;;;5028158;28;20038;-86
2022/10/05 14:22:56;;;;;;;4.18;2.60;;;18.10;99.90;;;;;;5004379;28;20049;-87